createdAt,value
2022-08-04T00:02:04.370Z,2.33
2022-08-04T00:04:49.543Z,2.63
2022-08-04T00:07:44.349Z,2.42
2022-08-04T00:10:18.078Z,2.25
2022-08-04T00:12:51.617Z,2.40
2022-08-04T00:15:24.002Z,2.22
2022-08-04T00:17:59.884Z,2.38
2022-08-04T00:20:32.419Z,2.35
2022-08-04T00:23:03.699Z,2.50
2022-08-04T00:25:31.296Z,2.50
2022-08-04T00:28:01.123Z,2.30
2022-08-04T00:30:28.500Z,2.70
2022-08-04T00:32:58.689Z,2.47
2022-08-04T00:35:30.759Z,2.80
2022-08-04T00:37:59.501Z,2.33
2022-08-04T00:41:01.896Z,2.28
2022-08-04T00:43:34.066Z,2.30
2022-08-04T00:46:15.291Z,2.40
2022-08-04T00:48:59.733Z,2.33
2022-08-04T00:52:31.782Z,2.20
2022-08-04T00:55:19.717Z,2.35
2022-08-04T00:58:22.264Z,2.55
2022-08-04T01:00:58.515Z,2.35
2022-08-04T01:03:54.932Z,2.65
2022-08-04T01:09:44.204Z,2.47
2022-08-04T01:12:31.694Z,2.85
2022-08-04T01:15:06.432Z,2.88
2022-08-04T01:17:59.004Z,2.30
2022-08-04T01:20:30.299Z,2.75
2022-08-04T01:23:13.153Z,2.47
2022-08-04T01:25:57.255Z,2.30
2022-08-04T01:29:02.326Z,2.60
2022-08-04T01:31:42.760Z,2.40
2022-08-04T01:34:13.578Z,2.10
2022-08-04T01:36:49.917Z,2.20
2022-08-04T01:39:39.321Z,2.53
2022-08-04T01:42:10.046Z,2.30
2022-08-04T01:45:10.766Z,2.33
2022-08-04T01:47:48.475Z,2.33
2022-08-04T01:50:15.809Z,2.35
2022-08-04T01:52:50.362Z,2.25
2022-08-04T01:55:55.275Z,2.30
2022-08-04T01:58:27.768Z,2.30
2022-08-04T02:01:08.900Z,2.45
2022-08-04T02:04:20.376Z,2.60
2022-08-04T02:06:57.323Z,2.33
2022-08-04T02:09:27.337Z,2.47
2022-08-04T02:12:16.352Z,2.30
2022-08-04T02:15:32.992Z,2.42
2022-08-04T02:18:41.661Z,2.25
2022-08-04T02:21:09.651Z,2.17
2022-08-04T02:23:43.172Z,2.15
2022-08-04T02:26:22.091Z,2.33
2022-08-04T02:28:56.803Z,2.00
2022-08-04T02:31:32.406Z,2.20
2022-08-04T02:34:13.586Z,2.10
2022-08-04T02:36:42.920Z,2.20
2022-08-04T02:39:11.994Z,1.83
2022-08-04T02:41:40.782Z,2.50
2022-08-04T02:44:10.354Z,2.63
2022-08-04T02:46:39.005Z,2.50
2022-08-04T02:49:11.220Z,2.47
2022-08-04T02:51:47.367Z,2.55
2022-08-04T02:54:30.515Z,2.13
2022-08-04T02:57:04.508Z,2.53
2022-08-04T03:00:11.693Z,2.30
2022-08-04T03:03:17.017Z,2.22
2022-08-04T03:06:10.918Z,2.13
2022-08-04T03:09:23.343Z,2.15
2022-08-04T03:12:47.420Z,2.35
2022-08-04T03:16:13.395Z,2.20
2022-08-04T03:18:49.510Z,2.20
2022-08-04T03:21:37.732Z,2.55
2022-08-04T03:24:29.178Z,2.40
2022-08-04T03:27:43.254Z,2.08
2022-08-04T03:30:19.177Z,2.33
2022-08-04T03:33:05.261Z,2.35
2022-08-04T03:35:53.355Z,2.05
2022-08-04T03:38:38.895Z,2.22
2022-08-04T03:41:55.002Z,2.40
2022-08-04T03:44:45.435Z,2.50
2022-08-04T03:47:44.244Z,2.30
2022-08-04T03:50:37.104Z,2.60
2022-08-04T03:53:55.658Z,2.53
2022-08-04T03:56:48.307Z,2.53
2022-08-04T03:59:35.934Z,2.58
2022-08-04T04:02:41.506Z,3.45
2022-08-04T04:05:59.919Z,3.13
2022-08-04T04:08:38.031Z,3.17
2022-08-04T04:11:22.193Z,3.20
2022-08-04T04:13:49.404Z,2.75
2022-08-04T04:16:32.741Z,2.78
2022-08-04T04:19:31.243Z,3.00
2022-08-04T04:22:21.250Z,2.75
2022-08-04T04:25:10.525Z,3.08
2022-08-04T04:27:52.285Z,2.70
2022-08-04T04:30:42.597Z,2.65
2022-08-04T04:33:39.057Z,2.38
2022-08-04T04:39:01.029Z,3.13
2022-08-04T04:41:50.202Z,2.75
2022-08-04T04:44:32.221Z,2.63
2022-08-04T04:47:42.812Z,2.45
2022-08-04T04:50:21.303Z,2.70
2022-08-04T04:53:11.288Z,2.10
2022-08-04T04:55:48.487Z,2.35
2022-08-04T04:58:20.294Z,2.80
2022-08-04T05:01:06.595Z,1.98
2022-08-04T05:04:03.208Z,2.55
2022-08-04T05:06:45.505Z,2.13
2022-08-04T05:09:25.794Z,2.33
2022-08-04T05:12:44.928Z,2.30
2022-08-04T05:15:00.000Z,2.33
2022-08-04T05:17:33.898Z,2.55
2022-08-04T05:20:07.427Z,2.42
2022-08-04T05:22:45.349Z,2.55
2022-08-04T05:25:27.800Z,2.22
2022-08-04T05:28:13.709Z,2.72
2022-08-04T05:33:31.444Z,2.50
2022-08-04T05:36:20.724Z,2.30
2022-08-04T05:38:54.644Z,2.50
2022-08-04T05:41:23.046Z,2.88
2022-08-04T05:44:03.302Z,2.53
2022-08-04T05:46:31.414Z,2.70
2022-08-04T05:49:08.002Z,2.78
2022-08-04T05:52:11.591Z,2.53
2022-08-04T05:54:43.358Z,2.35
2022-08-04T05:57:11.721Z,2.28
2022-08-04T05:59:42.815Z,2.35
2022-08-04T06:02:10.965Z,2.60
2022-08-04T06:04:41.077Z,2.40
2022-08-04T06:07:08.769Z,2.55
2022-08-04T06:09:36.131Z,2.50
2022-08-04T06:12:11.331Z,2.40
2022-08-04T06:14:43.159Z,2.33
2022-08-04T06:18:33.145Z,2.58
2022-08-04T06:20:23.963Z,1.92
2022-08-04T06:23:22.470Z,1.83
2022-08-04T06:25:57.051Z,1.90
2022-08-04T06:28:27.057Z,1.92
2022-08-04T06:32:28.436Z,2.20
2022-08-04T06:33:54.565Z,2.00
2022-08-04T06:36:22.724Z,2.05
2022-08-04T06:38:58.455Z,2.17
2022-08-04T06:41:29.090Z,1.90
2022-08-04T06:44:01.569Z,2.17
2022-08-04T06:46:30.815Z,2.03
2022-08-04T06:49:05.606Z,2.35
2022-08-04T06:51:42.375Z,2.10
2022-08-04T06:54:19.753Z,1.95
2022-08-04T06:57:17.530Z,1.98
2022-08-04T06:59:47.847Z,1.90
2022-08-04T07:02:20.428Z,2.28
2022-08-04T07:04:49.076Z,2.47
2022-08-04T07:07:18.403Z,1.90
2022-08-04T07:09:46.229Z,1.52
2022-08-04T07:12:14.086Z,2.00
2022-08-04T07:14:44.516Z,1.98
2022-08-04T07:17:14.071Z,1.90
2022-08-04T07:19:41.823Z,1.50
2022-08-04T07:22:17.779Z,1.85
2022-08-04T07:25:03.597Z,1.95
2022-08-04T07:27:47.920Z,1.95
2022-08-04T07:33:26.475Z,2.00
2022-08-04T07:36:08.961Z,2.03
2022-08-04T07:39:11.853Z,2.08
2022-08-04T07:46:20.195Z,1.88
2022-08-04T07:48:49.883Z,1.92
2022-08-04T07:51:18.207Z,2.20
2022-08-04T07:53:56.450Z,2.17
2022-08-04T07:59:36.946Z,2.30
2022-08-04T08:02:04.672Z,1.92
2022-08-04T08:05:02.109Z,2.03
2022-08-04T08:07:31.229Z,2.40
2022-08-04T08:09:58.589Z,2.20
2022-08-04T08:12:35.767Z,1.75
2022-08-04T08:15:17.921Z,1.95
2022-08-04T08:17:59.945Z,1.90
2022-08-04T08:20:30.935Z,1.90
2022-08-04T08:22:59.805Z,1.75
2022-08-04T08:25:27.413Z,2.05
2022-08-04T08:27:56.141Z,2.15
2022-08-04T08:30:32.076Z,2.17
2022-08-04T08:33:05.635Z,2.13
2022-08-04T08:36:04.565Z,1.67
2022-08-04T08:44:03.753Z,1.40
2022-08-04T08:46:48.104Z,1.73
2022-08-04T08:53:09.094Z,1.55
2022-08-04T08:56:31.269Z,1.60
2022-08-04T09:00:31.825Z,1.60
2022-08-04T09:03:57.180Z,1.70
2022-08-04T09:07:06.170Z,1.88
2022-08-04T09:10:17.021Z,1.50
2022-08-04T09:13:05.512Z,2.00
2022-08-04T09:16:35.428Z,1.70
2022-08-04T09:19:38.080Z,1.48
2022-08-04T09:22:20.792Z,1.73
2022-08-04T09:25:09.035Z,1.80
2022-08-04T09:28:53.958Z,1.40
2022-08-04T09:34:44.339Z,1.70
2022-08-04T09:37:46.096Z,1.50
2022-08-04T09:40:31.106Z,1.40
2022-08-04T09:47:43.873Z,1.80
2022-08-04T09:50:40.060Z,1.63
2022-08-04T09:53:58.177Z,1.23
2022-08-04T09:57:11.407Z,1.40
2022-08-04T10:04:13.380Z,1.50
2022-08-04T10:10:45.116Z,1.50
2022-08-04T10:13:54.475Z,1.33
2022-08-04T10:16:49.353Z,1.45
2022-08-04T10:19:40.066Z,1.65
2022-08-04T10:23:10.418Z,1.50
2022-08-04T10:26:07.553Z,1.63
2022-08-04T10:29:06.967Z,1.70
2022-08-04T10:31:44.458Z,1.45
2022-08-04T10:34:44.453Z,1.67
2022-08-04T10:40:14.236Z,1.60
2022-08-04T10:43:38.378Z,1.38
2022-08-04T10:46:14.804Z,1.70
2022-08-04T10:49:10.238Z,1.58
2022-08-04T10:52:04.077Z,1.70
2022-08-04T10:54:45.223Z,1.83
2022-08-04T10:57:23.850Z,2.90
2022-08-04T11:00:12.622Z,2.35
2022-08-04T11:03:43.715Z,1.90
2022-08-04T11:06:19.489Z,2.28
2022-08-04T11:09:15.207Z,2.03
2022-08-04T11:12:00.493Z,1.70
2022-08-04T11:14:59.667Z,1.60
2022-08-04T11:18:04.354Z,1.50
2022-08-04T11:20:51.070Z,1.67
2022-08-04T11:23:28.792Z,1.50
2022-08-04T11:26:43.433Z,1.60
2022-08-04T11:35:34.830Z,1.50
2022-08-04T11:38:11.940Z,1.50
2022-08-04T11:44:16.687Z,2.08
2022-08-04T11:46:56.070Z,1.48
2022-08-04T11:52:59.439Z,1.50
2022-08-04T11:56:37.273Z,1.60
2022-08-04T11:59:09.938Z,1.70
2022-08-04T12:05:37.203Z,1.40
2022-08-04T12:08:46.784Z,1.70
2022-08-04T12:11:58.478Z,1.50
2022-08-04T12:15:24.786Z,1.60
2022-08-04T12:18:24.912Z,1.80
2022-08-04T12:21:53.058Z,1.60
2022-08-04T12:25:39.990Z,1.45
2022-08-04T12:37:50.103Z,1.80
2022-08-04T12:40:31.415Z,1.45
2022-08-04T12:43:31.314Z,1.58
2022-08-04T12:46:55.833Z,1.60
2022-08-04T12:50:00.119Z,1.77
2022-08-04T12:55:22.212Z,1.90
2022-08-04T12:57:52.518Z,1.65
2022-08-04T13:00:29.577Z,1.88
2022-08-04T13:03:02.709Z,1.70
2022-08-04T13:05:40.254Z,1.70
2022-08-04T13:08:12.511Z,1.55
2022-08-04T13:10:46.291Z,1.83
2022-08-04T13:13:19.272Z,1.48
2022-08-04T13:16:02.068Z,1.65
2022-08-04T13:18:36.780Z,1.95
2022-08-04T13:21:49.956Z,1.83
2022-08-04T13:29:59.006Z,1.67
2022-08-04T13:32:37.976Z,1.60
2022-08-04T13:35:09.840Z,1.77
2022-08-04T13:37:40.655Z,1.90
2022-08-04T13:40:14.079Z,1.95
2022-08-04T13:42:46.990Z,2.00
2022-08-04T13:45:15.612Z,1.75
2022-08-04T13:47:43.699Z,1.60
2022-08-04T13:50:27.153Z,1.77
2022-08-04T13:53:00.298Z,1.52
2022-08-04T13:55:38.147Z,1.70
2022-08-04T13:59:12.235Z,1.80
2022-08-04T14:01:47.467Z,1.60
2022-08-04T14:04:22.054Z,1.80
2022-08-04T14:07:33.274Z,1.60
2022-08-04T14:10:30.231Z,1.90
2022-08-04T14:13:07.317Z,1.70
2022-08-04T14:16:01.561Z,1.60
2022-08-04T14:19:00.587Z,2.00
2022-08-04T14:21:29.584Z,1.65
2022-08-04T14:24:00.637Z,1.80
2022-08-04T14:29:28.495Z,1.85
2022-08-04T14:32:06.175Z,2.25
2022-08-04T14:34:45.303Z,1.73
2022-08-04T14:37:27.619Z,1.70
2022-08-04T14:40:08.783Z,1.70
2022-08-04T14:42:54.674Z,1.75
2022-08-04T14:45:34.992Z,1.50
2022-08-04T14:54:42.152Z,1.70
2022-08-04T14:57:10.951Z,2.03
2022-08-04T15:03:08.817Z,1.92
2022-08-04T15:05:55.388Z,1.75
2022-08-04T15:09:03.968Z,1.75
2022-08-04T15:11:31.633Z,1.90
2022-08-04T15:13:59.385Z,1.50
2022-08-04T15:16:30.073Z,1.40
2022-08-04T15:19:01.218Z,1.90
2022-08-04T15:21:30.420Z,1.70
2022-08-04T15:24:01.114Z,1.80
2022-08-04T15:26:43.215Z,1.40
2022-08-04T15:29:59.134Z,1.73
2022-08-04T15:32:36.114Z,1.63
2022-08-04T15:35:13.273Z,1.70
2022-08-04T15:37:59.953Z,1.70
2022-08-04T15:40:43.393Z,1.80
2022-08-04T15:43:31.755Z,1.60
2022-08-04T15:46:33.220Z,1.77
2022-08-04T15:48:53.104Z,1.60
2022-08-04T15:51:32.945Z,1.63
2022-08-04T15:54:33.380Z,1.80
2022-08-04T15:57:51.548Z,1.70
2022-08-04T16:00:24.992Z,1.40
2022-08-04T16:02:52.914Z,1.55
2022-08-04T16:05:52.814Z,1.65
2022-08-04T16:09:03.899Z,1.45
2022-08-04T16:11:37.328Z,1.42
2022-08-04T16:14:07.637Z,1.60
2022-08-04T16:20:36.852Z,1.50
2022-08-04T16:23:52.369Z,1.60
2022-08-04T16:26:45.566Z,1.45
2022-08-04T16:29:39.834Z,1.40
2022-08-04T16:36:21.379Z,1.20
2022-08-04T16:39:07.480Z,1.25
2022-08-04T16:41:40.219Z,1.40
2022-08-04T16:44:57.875Z,1.65
2022-08-04T16:47:49.984Z,1.35
2022-08-04T16:50:22.197Z,1.50
2022-08-04T16:56:00.140Z,1.45
2022-08-04T16:58:32.548Z,1.38
2022-08-04T17:04:11.352Z,1.83
2022-08-04T17:06:41.825Z,1.30
2022-08-04T17:09:16.449Z,1.52
2022-08-04T17:11:45.862Z,1.40
2022-08-04T17:14:33.238Z,1.38
2022-08-04T17:17:08.872Z,1.50
2022-08-04T17:19:51.280Z,1.67
2022-08-04T17:22:20.185Z,1.40
2022-08-04T17:24:52.482Z,1.52
2022-08-04T17:28:09.988Z,1.58
2022-08-04T17:30:27.298Z,1.50
2022-08-04T17:33:15.366Z,1.20
2022-08-04T17:35:47.432Z,1.30
2022-08-04T17:38:17.423Z,1.40
2022-08-04T17:41:19.518Z,1.45
2022-08-04T17:44:00.995Z,1.33
2022-08-04T17:46:45.370Z,1.30
2022-08-04T17:49:18.594Z,1.40
2022-08-04T17:52:39.649Z,1.55
2022-08-04T17:55:07.785Z,1.80
2022-08-04T17:58:35.193Z,1.40
2022-08-04T18:01:23.631Z,1.23
2022-08-04T18:03:58.143Z,1.60
2022-08-04T18:06:28.539Z,1.83
2022-08-04T18:08:58.860Z,1.70
2022-08-04T18:11:29.456Z,1.50
2022-08-04T18:14:10.309Z,1.45
2022-08-04T18:16:45.384Z,2.05
2022-08-04T18:19:55.797Z,1.95
2022-08-04T18:22:27.668Z,1.63
2022-08-04T18:24:56.996Z,1.40
2022-08-04T18:27:29.945Z,1.58
2022-08-04T18:30:34.532Z,1.50
2022-08-04T18:33:10.448Z,1.40
2022-08-04T18:36:32.924Z,1.80
2022-08-04T18:38:23.911Z,1.52
2022-08-04T18:40:52.786Z,1.70
2022-08-04T18:43:28.340Z,1.75
2022-08-04T18:45:59.622Z,1.60
2022-08-04T18:48:35.884Z,1.95
2022-08-04T18:51:22.903Z,1.95
2022-08-04T18:53:58.632Z,1.80
2022-08-04T18:56:32.834Z,1.85
2022-08-04T18:59:03.151Z,2.13
2022-08-04T19:02:13.610Z,2.38
2022-08-04T19:04:33.743Z,2.40
2022-08-04T19:07:29.289Z,1.92
2022-08-04T19:09:57.594Z,1.88
2022-08-04T19:12:27.955Z,1.80
2022-08-04T19:14:58.335Z,2.00
2022-08-04T19:17:53.997Z,2.20
2022-08-04T19:20:25.295Z,1.95
2022-08-04T19:24:11.303Z,1.95
2022-08-04T19:26:03.909Z,1.70
2022-08-04T19:28:41.093Z,2.42
2022-08-04T19:31:12.012Z,1.70
2022-08-04T19:33:59.020Z,1.98
2022-08-04T19:36:39.243Z,2.10
2022-08-04T19:39:21.839Z,2.67
2022-08-04T19:42:05.993Z,1.92
2022-08-04T19:44:49.487Z,2.15
2022-08-04T19:48:18.033Z,2.25
2022-08-04T19:50:30.337Z,2.22
2022-08-04T19:53:37.288Z,1.80
2022-08-04T19:56:39.913Z,1.83
2022-08-04T19:59:39.300Z,1.83
2022-08-04T20:02:20.493Z,2.13
2022-08-04T20:05:52.691Z,2.03
2022-08-04T20:08:13.500Z,1.90
2022-08-04T20:18:06.997Z,2.00
2022-08-04T20:24:39.483Z,1.80
2022-08-04T20:26:59.146Z,1.73
2022-08-04T20:29:41.139Z,1.38
2022-08-04T20:32:11.890Z,2.05
2022-08-04T20:35:45.878Z,1.80
2022-08-04T20:38:32.679Z,1.88
2022-08-04T20:43:44.747Z,1.88
2022-08-04T20:46:28.672Z,1.63
2022-08-04T20:49:00.856Z,1.77
2022-08-04T20:51:40.179Z,1.80
2022-08-04T20:54:16.022Z,1.80
2022-08-04T20:56:50.571Z,1.73
2022-08-04T20:59:37.942Z,1.70
2022-08-04T21:02:16.398Z,1.83
2022-08-04T21:04:48.402Z,1.45
2022-08-04T21:07:18.936Z,1.67
2022-08-04T21:10:05.261Z,2.05
2022-08-04T21:12:39.224Z,1.67
2022-08-04T21:15:14.484Z,1.77
2022-08-04T21:17:58.991Z,1.88
2022-08-04T21:20:32.279Z,2.08
2022-08-04T21:23:01.910Z,1.90
2022-08-04T21:25:30.180Z,1.92
2022-08-04T21:27:58.539Z,2.10
2022-08-04T21:30:27.051Z,2.13
2022-08-04T21:32:55.257Z,1.90
2022-08-04T21:35:30.080Z,1.90
2022-08-04T21:38:17.290Z,1.70
2022-08-04T21:40:53.807Z,1.70
2022-08-04T21:43:23.539Z,2.22
2022-08-04T21:45:56.053Z,1.83
2022-08-04T21:48:27.497Z,1.77
2022-08-04T21:50:55.266Z,2.08
2022-08-04T21:53:22.800Z,1.90
2022-08-04T21:56:05.998Z,1.75
2022-08-04T21:58:38.078Z,1.80
2022-08-04T22:01:13.071Z,2.00
2022-08-04T22:03:51.843Z,1.52
2022-08-04T22:06:28.043Z,1.80
2022-08-04T22:08:57.195Z,2.00
2022-08-04T22:11:43.859Z,1.65
2022-08-04T22:14:27.647Z,1.60
2022-08-04T22:17:02.198Z,1.40
2022-08-04T22:19:49.828Z,2.00
2022-08-04T22:22:25.908Z,1.95
2022-08-04T22:24:58.433Z,1.90
2022-08-04T22:27:47.563Z,1.90
2022-08-04T22:30:17.311Z,1.80
2022-08-04T22:32:50.517Z,1.92
2022-08-04T22:35:43.833Z,1.65
2022-08-04T22:38:24.030Z,1.98
2022-08-04T22:41:05.912Z,1.60
2022-08-04T22:43:34.811Z,1.70
2022-08-04T22:46:05.391Z,1.48
2022-08-04T22:51:22.466Z,1.60
2022-08-04T22:53:51.394Z,1.95
2022-08-04T22:56:38.421Z,2.33
2022-08-04T22:59:10.917Z,1.55
2022-08-04T23:01:59.154Z,1.48
2022-08-04T23:04:34.326Z,1.80
2022-08-04T23:07:11.593Z,1.60
2022-08-04T23:09:50.965Z,1.77
2022-08-04T23:12:25.383Z,1.50
2022-08-04T23:14:55.711Z,1.70
2022-08-04T23:17:24.681Z,1.60
2022-08-04T23:19:57.495Z,1.80
2022-08-04T23:22:42.075Z,2.00
2022-08-04T23:25:16.962Z,1.98
2022-08-04T23:27:50.738Z,2.10
2022-08-04T23:30:24.692Z,1.80
2022-08-04T23:32:57.997Z,2.10
2022-08-04T23:35:39.196Z,1.77
2022-08-04T23:38:31.219Z,1.70
2022-08-04T23:41:54.419Z,1.50
2022-08-04T23:44:50.163Z,1.98
2022-08-04T23:48:15.763Z,1.60
2022-08-04T23:50:22.068Z,1.80
2022-08-04T23:55:54.063Z,1.92
2022-08-04T23:58:28.392Z,1.77
